createdAt,value
2023-01-04T12:59:27.236Z,1491.67
2023-01-04T13:00:03.318Z,1491.67
2023-01-04T13:05:56.856Z,1066.67
2023-01-04T13:10:02.982Z,425
2023-01-04T13:15:03.005Z,486.67
2023-01-04T13:20:02.711Z,791.67
2023-01-04T13:25:02.363Z,1248.33
2023-01-04T13:30:02.661Z,1346.67
2023-01-04T13:35:13.298Z,1106.67
2023-01-04T13:40:02.730Z,1160
2023-01-04T13:45:20.990Z,945
2023-01-04T13:50:02.797Z,865
2023-01-04T13:55:03.337Z,941.67
2023-01-04T14:00:03.280Z,615
2023-01-04T14:05:03.020Z,536.67
2023-01-04T14:10:03.045Z,565
2023-01-04T14:15:02.834Z,430
2023-01-04T14:20:02.663Z,270
2023-01-04T14:25:10.915Z,178.33
2023-01-04T14:30:02.962Z,166.67
2023-01-04T14:35:02.682Z,230
2023-01-04T14:40:02.464Z,181.67
2023-01-04T14:45:02.504Z,145
2023-01-04T14:50:03.101Z,136.67
2023-01-04T14:55:03.603Z,101.67
2023-01-04T15:00:03.184Z,38.33
2023-01-04T15:05:02.450Z,48.33
2023-01-04T15:10:03.394Z,38.33
2023-01-04T15:15:03.032Z,26.67
2023-01-04T15:20:03.200Z,15
2023-01-04T15:25:02.894Z,5
2023-01-04T15:30:02.798Z,7.24
2023-01-04T15:35:02.493Z,2.6
2023-01-04T15:40:04.145Z,2.38
2023-01-04T15:45:03.234Z,0.68
2023-01-04T15:50:03.156Z,0.34
2023-01-04T15:55:03.206Z,0.11
2023-01-04T16:00:02.655Z,0
2023-01-04T16:05:03.274Z,0
2023-01-04T16:10:03.147Z,0
2023-01-04T16:15:03.277Z,0
2023-01-04T16:20:02.986Z,0
2023-01-04T16:25:12.498Z,0
2023-01-04T16:30:02.785Z,0
2023-01-04T16:35:02.442Z,0
2023-01-04T16:40:08.783Z,0
2023-01-04T16:45:02.520Z,0
2023-01-04T16:50:02.347Z,0
2023-01-04T16:55:03.427Z,0
2023-01-04T17:00:03.281Z,0
2023-01-04T17:05:02.581Z,0
2023-01-04T17:10:02.621Z,0
2023-01-04T17:20:02.602Z,0
2023-01-04T17:25:02.479Z,0
2023-01-04T17:30:03.223Z,0
2023-01-04T17:35:03.082Z,0
2023-01-04T17:40:02.885Z,0
2023-01-04T17:45:02.824Z,0
2023-01-04T17:50:02.498Z,0
2023-01-04T17:55:03.604Z,0
2023-01-04T18:00:02.971Z,0
2023-01-04T18:05:02.657Z,0
2023-01-04T18:10:02.695Z,0
2023-01-04T18:15:02.493Z,0
2023-01-04T18:20:03.489Z,0
2023-01-04T18:25:02.973Z,0
2023-01-04T18:30:02.864Z,0
2023-01-04T18:35:02.788Z,0
2023-01-04T18:40:03.007Z,0
2023-01-04T18:45:03.007Z,0
2023-01-04T18:50:02.847Z,0
2023-01-04T18:55:03.214Z,0
2023-01-04T19:00:03.308Z,0
2023-01-04T19:05:03.104Z,0
2023-01-04T19:10:02.892Z,0
2023-01-04T19:15:02.928Z,0
2023-01-04T19:20:02.808Z,0
2023-01-04T19:25:03.278Z,0
2023-01-04T19:30:02.978Z,0
2023-01-04T19:35:02.618Z,0
2023-01-04T19:40:03.275Z,0
2023-01-04T19:45:03.230Z,0
2023-01-04T19:55:03.352Z,0
2023-01-04T20:00:02.790Z,0
2023-01-04T20:05:02.595Z,0
2023-01-04T20:10:02.383Z,0
2023-01-04T20:15:03.165Z,0
2023-01-04T20:20:03.051Z,0
2023-01-04T20:25:02.702Z,0
2023-01-04T20:30:02.560Z,0
2023-01-04T20:35:03.371Z,0
2023-01-04T20:40:03.093Z,0
2023-01-04T20:45:03.146Z,0
2023-01-04T20:50:02.837Z,0
2023-01-04T20:55:03.306Z,0
2023-01-04T21:00:03.213Z,0
2023-01-04T21:05:02.888Z,0
2023-01-04T21:10:02.704Z,0
2023-01-04T21:15:02.468Z,0
2023-01-04T21:25:03.114Z,0
2023-01-04T21:30:02.868Z,0
2023-01-04T21:35:02.805Z,0
2023-01-04T21:40:02.546Z,0
2023-01-04T21:45:03.323Z,0
2023-01-04T21:50:03.065Z,0
2023-01-04T21:55:03.396Z,0
2023-01-04T22:00:02.586Z,0
2023-01-04T22:05:03.251Z,0
2023-01-04T22:10:03.019Z,0
2023-01-04T22:15:03.042Z,0
2023-01-04T22:20:02.901Z,0
2023-01-04T22:25:02.644Z,0
2023-01-04T22:30:03.358Z,0
2023-01-04T22:35:03.037Z,0
2023-01-04T22:40:02.692Z,0
2023-01-04T22:45:11.088Z,0
2023-01-04T22:50:02.335Z,0
2023-01-04T22:55:04.013Z,0
2023-01-04T23:00:03.138Z,0
2023-01-04T23:05:02.842Z,0
2023-01-04T23:10:02.631Z,0
2023-01-04T23:15:03.627Z,0
2023-01-04T23:20:10.596Z,0
2023-01-04T23:30:02.954Z,0
2023-01-04T23:35:03.041Z,0
2023-01-04T23:40:02.835Z,0
2023-01-04T23:45:04.645Z,0
2023-01-04T23:50:03.153Z,0
2023-01-04T23:55:03.086Z,0
